Time;durP1;ratioP1;P1;durP2;ratioP2;P2;SDS_P1;SDS_P2;PMS_P1;PMS_P2;Temp;Humidity;BMP_temperature;BMP_pressure;BME280_temperature;BME280_humidity;BME280_pressure;Samples;Min_cycle;Max_cycle;Signal;HPM_P1;HPM_P2
2023/04/01 00:02:24;;;;;;;;;;;;;;;16.46;38.75;94238.53;5067783;28;19931;-66
2023/04/01 00:04:52;;;;;;;;;;;;;;;16.48;38.07;94225.03;5069337;28;19932;-66
2023/04/01 00:07:37;;;;;;;;;;;;;;;16.43;38.35;94228.59;5068281;28;20050;-67
2023/04/01 00:10:05;;;;;;;;;;;;;;;16.27;38.37;94237.25;5068879;28;19974;-67
2023/04/01 00:12:32;;;;;;;;;;;;;;;16.42;38.72;94227.03;5068532;28;20038;-68
2023/04/01 00:14:59;;;;;;;;;;;;;;;16.41;37.93;94225.47;5068813;28;20406;-69
2023/04/01 00:17:26;;;;;;;;;;;;;;;16.02;39.01;94239.47;5068275;28;20076;-67
2023/04/01 00:19:54;;;;;;;;;;;;;;;16.12;38.63;94238.44;5068009;28;19924;-67
2023/04/01 00:22:21;;;;;;;;;;;;;;;16.06;39.21;94242.28;5067960;28;20022;-68
2023/04/01 00:24:48;;;;;;;;;;;;;;;15.88;39.24;94243.28;5068804;28;19925;-67
2023/04/01 00:27:15;;;;;;;;;;;;;;;16.13;38.55;94239.97;5067831;28;19927;-66
2023/04/01 00:29:43;;;;;;;;;;;;;;;16.17;38.93;94243.56;5068110;28;19925;-69
2023/04/01 00:32:10;;;;;;;;;;;;;;;15.71;39.68;94240.56;5055046;28;19926;-69
2023/04/01 00:34:37;;;;;;;;;;;;;;;15.55;39.43;94239.38;5068643;28;19951;-69
2023/04/01 00:37:05;;;;;;;;;;;;;;;15.62;39.75;94229.19;5068428;28;19936;-67
2023/04/01 00:39:32;;;;;;;;;;;;;;;15.76;39.41;94229.88;5068208;28;20575;-67
2023/04/01 00:42:00;;;;;;;;;;;;;;;15.81;39.13;94221.81;5049930;28;19974;-69
2023/04/01 00:44:28;;;;;;;;;;;;;;;16.04;38.82;94210.09;5067941;28;20417;-69
2023/04/01 00:46:55;;;;;;;;;;;;;;;15.63;39.60;94209.59;5068182;28;19941;-69
2023/04/01 00:49:23;;;;;;;;;;;;;;;15.71;40.00;94207.00;5049843;28;19952;-70
2023/04/01 00:51:51;;;;;;;;;;;;;;;15.44;40.91;94201.88;5047565;28;20406;-68
2023/04/01 00:54:19;;;;;;;;;;;;;;;15.43;41.04;94202.19;5068362;28;19978;-69
2023/04/01 00:57:00;;;;;;;;;;;;;;;15.53;40.54;94194.03;5066904;28;19968;-68
2023/04/01 00:59:30;;;;;;;;;;;;;;;15.56;40.30;94198.69;5050190;28;20642;-67
2023/04/01 01:01:56;;;;;;;;;;;;;;;15.77;40.03;94181.22;5049698;28;19952;-68
2023/04/01 01:04:28;;;;;;;;;;;;;;;15.98;39.46;94179.63;5051988;28;19948;-68
2023/04/01 01:06:55;;;;;;;;;;;;;;;15.83;40.44;94178.19;5054364;28;19949;-68
2023/04/01 01:09:36;;;;;;;;;;;;;;;15.22;41.48;94172.84;5072838;28;20033;-67
2023/04/01 01:12:09;;;;;;;;;;;;;;;15.29;41.42;94172.44;5053608;28;19952;-68
2023/04/01 01:14:36;;;;;;;;;;;;;;;15.00;42.18;94176.25;5072052;28;20584;-68
2023/04/01 01:17:14;;;;;;;;;;;;;;;15.04;41.76;94164.03;5071242;28;19960;-68
2023/04/01 01:20:00;;;;;;;;;;;;;;;15.00;42.27;94173.63;5071832;28;20402;-66
2023/04/01 01:22:35;;;;;;;;;;;;;;;15.13;41.70;94154.31;5071593;28;19941;-69
2023/04/01 01:25:08;;;;;;;;;;;;;;;15.46;41.34;94154.84;5071751;28;19982;-68
2023/04/01 01:27:38;;;;;;;;;;;;;;;15.47;41.20;94164.34;5071144;28;19942;-69
2023/04/01 01:30:08;;;;;;;;;;;;;;;15.32;41.13;94155.97;5053718;28;19991;-67
2023/04/01 01:32:37;;;;;;;;;;;;;;;15.51;41.47;94148.66;5071045;28;20007;-68
2023/04/01 01:35:17;;;;;;;;;;;;;;;15.44;40.81;94143.03;5053517;28;19944;-66
2023/04/01 01:37:44;;;;;;;;;;;;;;;15.53;40.47;94138.59;5071173;28;19967;-65
2023/04/01 01:40:13;;;;;;;;;;;;;;;15.61;40.84;94137.81;5053663;28;19971;-66
2023/04/01 01:42:43;;;;;;;;;;;;;;;15.62;40.24;94134.88;5052818;28;19943;-70
2023/04/01 01:45:12;;;;;;;;;;;;;;;15.64;41.09;94126.66;5071750;28;20043;-67
2023/04/01 01:47:40;;;;;;;;;;;;;;;15.59;39.46;94130.22;5053008;28;19945;-67
2023/04/01 01:50:07;;;;;;;;;;;;;;;15.58;38.91;94131.31;5055503;28;20333;-68
2023/04/01 01:52:34;;;;;;;;;;;;;;;15.76;39.60;94130.28;5069312;28;19940;-66
2023/04/01 01:55:02;;;;;;;;;;;;;;;15.86;39.44;94135.28;5053830;28;19998;-67
2023/04/01 01:57:41;;;;;;;;;;;;;;;15.76;39.15;94124.22;5052837;28;20406;-66
2023/04/01 02:00:14;;;;;;;;;;;;;;;15.79;39.56;94113.81;5053213;28;19939;-68
2023/04/01 02:02:45;;;;;;;;;;;;;;;15.82;40.30;94112.44;5052678;28;19939;-67
2023/04/01 02:05:16;;;;;;;;;;;;;;;15.68;39.66;94117.03;5053018;28;19954;-67
2023/04/01 02:07:45;;;;;;;;;;;;;;;15.84;39.52;94120.81;5070380;28;19940;-67
2023/04/01 02:10:12;;;;;;;;;;;;;;;15.66;39.45;94113.91;5052519;28;19949;-69
2023/04/01 02:12:40;;;;;;;;;;;;;;;15.78;39.62;94111.50;5052425;28;19946;-69
2023/04/01 02:15:13;;;;;;;;;;;;;;;15.76;39.69;94100.44;5069684;28;20383;-69
2023/04/01 02:17:43;;;;;;;;;;;;;;;15.89;39.84;94112.78;5052503;28;20393;-69
2023/04/01 02:20:10;;;;;;;;;;;;;;;15.71;39.93;94105.88;5052526;28;20299;-69
2023/04/01 02:22:41;;;;;;;;;;;;;;;15.76;40.00;94098.59;5052411;28;20409;-67
2023/04/01 02:25:10;;;;;;;;;;;;;;;15.84;39.39;94089.13;5052470;28;19924;-68
2023/04/01 02:27:38;;;;;;;;;;;;;;;15.87;39.53;94083.25;5052112;28;19926;-69
2023/04/01 02:30:06;;;;;;;;;;;;;;;15.60;40.06;94084.22;5069168;28;20391;-67
2023/04/01 02:32:33;;;;;;;;;;;;;;;15.74;39.43;94084.13;5052039;28;20410;-66
2023/04/01 02:35:05;;;;;;;;;;;;;;;15.66;39.98;94093.56;5070304;28;19925;-67
2023/04/01 02:37:32;;;;;;;;;;;;;;;15.93;39.50;94103.16;5070182;28;19940;-68
2023/04/01 02:40:02;;;;;;;;;;;;;;;16.02;38.77;94096.03;5070300;28;20300;-67
2023/04/01 02:42:29;;;;;;;;;;;;;;;15.92;39.96;94104.22;5069875;28;19944;-68
2023/04/01 02:44:56;;;;;;;;;;;;;;;15.93;40.01;94106.56;5052290;28;19989;-67
2023/04/01 02:47:22;;;;;;;;;;;;;;;15.98;39.66;94108.28;5068762;28;20033;-68
2023/04/01 02:49:49;;;;;;;;;;;;;;;15.97;39.68;94125.22;5052459;28;19992;-67
2023/04/01 02:52:16;;;;;;;;;;;;;;;15.92;39.83;94117.44;5069372;28;19989;-67
2023/04/01 02:54:43;;;;;;;;;;;;;;;15.60;40.59;94115.91;5070150;28;20411;-68
2023/04/01 02:57:09;;;;;;;;;;;;;;;15.30;40.53;94129.88;5050828;28;20009;-68
2023/04/01 02:59:36;;;;;;;;;;;;;;;15.23;40.51;94132.97;5052329;28;19947;-68
2023/04/01 03:02:03;;;;;;;;;;;;;;;15.34;41.10;94127.41;5069600;28;20521;-67
2023/04/01 03:04:29;;;;;;;;;;;;;;;15.29;40.32;94124.91;5052273;28;19993;-67
2023/04/01 03:06:56;;;;;;;;;;;;;;;15.22;41.17;94141.94;5069343;28;19944;-66
2023/04/01 03:09:23;;;;;;;;;;;;;;;15.33;41.43;94137.19;5069532;28;19963;-67
2023/04/01 03:11:51;;;;;;;;;;;;;;;15.51;41.03;94135.47;5051464;28;20039;-66
2023/04/01 03:14:17;;;;;;;;;;;;;;;15.50;40.58;94131.25;5051807;28;19947;-68
2023/04/01 03:16:45;;;;;;;;;;;;;;;15.64;39.98;94137.22;5069252;28;19949;-68
2023/04/01 03:19:11;;;;;;;;;;;;;;;15.38;40.78;94131.03;5050495;28;19939;-68
2023/04/01 03:21:38;;;;;;;;;;;;;;;14.73;41.94;94138.66;5068127;28;19950;-67
2023/04/01 03:24:06;;;;;;;;;;;;;;;14.95;41.23;94142.09;5069552;28;20664;-69
2023/04/01 03:26:32;;;;;;;;;;;;;;;15.35;41.29;94144.81;5050919;28;19947;-70
2023/04/01 03:28:59;;;;;;;;;;;;;;;14.75;42.40;94147.06;5051761;28;19940;-69
2023/04/01 03:31:26;;;;;;;;;;;;;;;15.05;41.87;94154.28;5071018;28;20362;-67
2023/04/01 03:33:55;;;;;;;;;;;;;;;14.85;42.73;94168.69;5052093;28;19975;-67
2023/04/01 03:36:22;;;;;;;;;;;;;;;14.99;42.63;94163.38;5051330;28;19948;-67
2023/04/01 03:38:49;;;;;;;;;;;;;;;15.37;41.38;94163.75;5064351;28;20411;-67
2023/04/01 03:41:22;;;;;;;;;;;;;;;15.50;40.84;94152.38;5051213;28;19940;-68
2023/04/01 03:43:49;;;;;;;;;;;;;;;15.45;41.20;94139.31;5069775;28;19940;-68
2023/04/01 03:46:20;;;;;;;;;;;;;;;15.52;40.72;94132.50;5048018;28;19944;-67
2023/04/01 03:48:47;;;;;;;;;;;;;;;15.47;41.55;94123.94;5051354;28;19956;-69
2023/04/01 03:51:13;;;;;;;;;;;;;;;15.32;41.02;94116.38;5050601;28;19938;-68
2023/04/01 03:53:40;;;;;;;;;;;;;;;15.45;41.42;94105.00;5048960;28;19943;-67
2023/04/01 03:56:07;;;;;;;;;;;;;;;15.54;41.60;94089.97;5047200;28;19961;-61
2023/04/01 03:58:35;;;;;;;;;;;;;;;15.61;41.44;94069.16;5042710;28;20427;-63
2023/04/01 04:01:12;;;;;;;;;;;;;;;15.70;41.81;94067.34;5047653;28;19936;-64
2023/04/01 04:03:39;;;;;;;;;;;;;;;15.63;41.65;94048.53;5047852;28;19940;-65
2023/04/01 04:06:10;;;;;;;;;;;;;;;15.11;42.06;94047.50;5047423;28;19943;-66
2023/04/01 04:08:38;;;;;;;;;;;;;;;15.32;41.80;94047.75;5048030;28;19975;-65
2023/04/01 04:11:04;;;;;;;;;;;;;;;15.57;41.31;94042.59;5048670;28;19997;-66
2023/04/01 04:13:32;;;;;;;;;;;;;;;15.52;41.60;94034.81;5047854;28;20019;-65
2023/04/01 04:16:00;;;;;;;;;;;;;;;15.23;42.34;94034.53;5047197;28;19944;-66
2023/04/01 04:18:28;;;;;;;;;;;;;;;15.56;40.80;94029.72;5045792;28;19990;-63
2023/04/01 04:20:55;;;;;;;;;;;;;;;15.24;41.58;94028.16;5046916;28;19939;-67
2023/04/01 04:23:22;;;;;;;;;;;;;;;15.36;41.71;94015.19;5046896;28;19935;-64
2023/04/01 04:26:00;;;;;;;;;;;;;;;15.37;41.94;94010.66;5046824;28;19951;-64
2023/04/01 04:28:28;;;;;;;;;;;;;;;15.42;41.48;94007.94;5046333;28;19944;-63
2023/04/01 04:30:57;;;;;;;;;;;;;;;15.42;41.88;94008.69;5046402;28;19943;-66
2023/04/01 04:33:24;;;;;;;;;;;;;;;14.96;41.47;94006.47;5046695;28;19955;-66
2023/04/01 04:35:51;;;;;;;;;;;;;;;14.90;42.29;94004.28;5036729;28;19948;-68
2023/04/01 04:38:18;;;;;;;;;;;;;;;15.37;41.46;94000.09;5040756;28;20028;-66
2023/04/01 04:40:45;;;;;;;;;;;;;;;15.35;41.28;93989.06;5051019;28;20002;-67
2023/04/01 04:43:13;;;;;;;;;;;;;;;15.33;41.64;93988.63;5065709;28;20406;-65
2023/04/01 04:45:40;;;;;;;;;;;;;;;15.23;41.10;93982.53;5049861;28;19940;-66
2023/04/01 04:48:08;;;;;;;;;;;;;;;15.37;40.91;93984.25;5049950;28;19939;-63
2023/04/01 04:50:36;;;;;;;;;;;;;;;15.48;41.38;93980.28;5050673;28;19946;-67
2023/04/01 04:53:03;;;;;;;;;;;;;;;15.48;41.17;93965.25;5050428;28;19950;-62
2023/04/01 04:55:31;;;;;;;;;;;;;;;15.36;41.59;93964.25;5051407;28;19948;-64
2023/04/01 04:58:26;;;;;;;;;;;;;;;15.41;41.53;93954.34;5045522;28;19950;-66
2023/04/01 05:00:53;;;;;;;;;;;;;;;15.09;42.63;93958.09;5053406;28;20359;-64
2023/04/01 05:03:27;;;;;;;;;;;;;;;15.47;40.88;93968.19;5054692;28;19939;-64
2023/04/01 05:05:54;;;;;;;;;;;;;;;15.67;40.57;93967.59;5053881;28;20373;-65
2023/04/01 05:08:21;;;;;;;;;;;;;;;15.52;40.51;93960.13;5072311;28;19953;-66
2023/04/01 05:10:48;;;;;;;;;;;;;;;15.62;40.18;93957.19;5054079;28;19937;-65
2023/04/01 05:13:14;;;;;;;;;;;;;;;15.67;39.89;93951.75;5071954;28;19943;-64
2023/04/01 05:15:45;;;;;;;;;;;;;;;15.65;40.03;93952.06;5054946;28;19939;-66
2023/04/01 05:18:12;;;;;;;;;;;;;;;15.83;39.11;93947.56;5054458;28;19959;-62
2023/04/01 05:20:39;;;;;;;;;;;;;;;15.76;39.58;93947.25;5054628;28;19945;-63
2023/04/01 05:23:06;;;;;;;;;;;;;;;15.45;40.14;93944.75;5053990;28;20567;-62
2023/04/01 05:25:32;;;;;;;;;;;;;;;15.62;39.74;93922.88;5054358;28;19946;-69
2023/04/01 05:27:59;;;;;;;;;;;;;;;15.68;40.19;93921.59;5054423;28;20399;-67
2023/04/01 05:30:27;;;;;;;;;;;;;;;15.49;40.23;93926.41;5054868;28;19955;-66
2023/04/01 05:33:00;;;;;;;;;;;;;;;15.07;40.39;93923.34;5053251;28;20467;-63
2023/04/01 05:35:27;;;;;;;;;;;;;;;15.39;40.10;93924.81;5057922;28;19924;-69
2023/04/01 05:37:54;;;;;;;;;;;;;;;15.59;40.37;93920.81;5054478;28;19943;-65
2023/04/01 05:40:21;;;;;;;;;;;;;;;15.74;39.88;93925.66;5054746;28;19924;-69
2023/04/01 05:42:47;;;;;;;;;;;;;;;15.69;39.49;93928.47;5071549;28;19924;-71
2023/04/01 05:45:16;;;;;;;;;;;;;;;15.84;39.54;93920.06;5054751;28;19973;-66
2023/04/01 05:48:01;;;;;;;;;;;;;;;15.80;39.68;93933.09;5072197;28;19926;-72
2023/04/01 05:50:34;;;;;;;;;;;;;;;15.72;38.85;93933.13;5055047;28;19928;-72
2023/04/01 05:53:01;;;;;;;;;;;;;;;15.85;39.29;93926.91;5053925;28;20453;-71
2023/04/01 05:55:28;;;;;;;;;;;;;;;15.85;39.21;93917.13;5054856;28;19921;-67
2023/04/01 05:57:55;;;;;;;;;;;;;;;15.97;39.30;93908.56;5070515;28;19946;-71
2023/04/01 06:00:22;;;;;;;;;;;;;;;16.09;39.53;93906.06;5054508;28;19924;-67
2023/04/01 06:02:49;;;;;;;;;;;;;;;16.31;39.27;93897.19;5053365;28;19920;-68
2023/04/01 06:05:21;;;;;;;;;;;;;;;16.74;38.50;93905.78;5054886;28;19980;-75
2023/04/01 06:07:50;;;;;;;;;;;;;;;16.35;38.15;93909.44;5055097;28;19975;-75
2023/04/01 06:10:18;;;;;;;;;;;;;;;16.57;37.59;93911.16;5055768;28;19932;-69
2023/04/01 06:12:45;;;;;;;;;;;;;;;16.92;37.72;93908.03;5054490;28;19992;-71
2023/04/01 06:15:20;;;;;;;;;;;;;;;17.07;37.92;93904.09;5054013;28;19972;-68
2023/04/01 06:17:57;;;;;;;;;;;;;;;17.21;37.68;93897.47;5053043;28;19975;-68
2023/04/01 06:20:32;;;;;;;;;;;;;;;16.98;38.16;93896.19;5053608;28;19920;-66
2023/04/01 06:23:12;;;;;;;;;;;;;;;16.84;38.22;93895.63;5043834;28;19921;-70
2023/04/01 06:25:51;;;;;;;;;;;;;;;17.18;37.40;93906.06;5054835;28;20419;-68
2023/04/01 06:28:19;;;;;;;;;;;;;;;17.26;38.51;93901.03;5055191;28;19935;-72
2023/04/01 06:30:46;;;;;;;;;;;;;;;17.39;38.46;93905.31;5053485;28;20282;-69
2023/04/01 06:33:42;;;;;;;;;;;;;;;17.56;37.71;93895.41;5053481;28;19971;-68
2023/04/01 06:36:25;;;;;;;;;;;;;;;17.48;38.20;93887.53;5052977;28;19944;-69
2023/04/01 06:38:58;;;;;;;;;;;;;;;17.42;38.04;93888.78;5069967;28;20425;-69
2023/04/01 06:41:28;;;;;;;;;;;;;;;17.40;38.72;93890.97;5056242;28;20387;-72
2023/04/01 06:44:05;;;;;;;;;;;;;;;17.30;39.99;93872.81;5052983;28;20069;-70
2023/04/01 06:46:57;;;;;;;;;;;;;;;17.47;38.53;93868.22;5056741;28;19947;-68
2023/04/01 06:49:59;;;;;;;;;;;;;;;17.61;37.84;93875.91;5038153;28;20278;-67
2023/04/01 06:52:25;;;;;;;;;;;;;;;17.66;38.55;93878.38;5058702;28;19926;-68
2023/04/01 06:55:14;;;;;;;;;;;;;;;17.57;38.55;93875.00;5070250;28;20461;-67
2023/04/01 06:58:06;;;;;;;;;;;;;;;17.85;37.98;93838.91;5067534;28;19924;-68
2023/04/01 07:00:36;;;;;;;;;;;;;;;17.73;38.51;93836.22;5050874;28;19928;-67
2023/04/01 07:03:05;;;;;;;;;;;;;;;17.52;38.85;93852.13;5067167;28;19963;-68
2023/04/01 07:05:33;;;;;;;;;;;;;;;17.77;38.35;93834.47;5052128;28;20265;-67
2023/04/01 07:08:03;;;;;;;;;;;;;;;17.74;39.09;93843.06;5051285;28;19924;-70
2023/04/01 07:10:49;;;;;;;;;;;;;;;17.83;38.67;93843.75;5052649;28;19957;-69
2023/04/01 07:13:45;;;;;;;;;;;;;;;17.89;38.83;93837.16;5070592;28;20384;-72
2023/04/01 07:16:15;;;;;;;;;;;;;;;18.05;39.03;93830.16;5038095;28;19941;-73
2023/04/01 07:18:49;;;;;;;;;;;;;;;18.00;38.67;93825.06;5049270;28;19971;-69
2023/04/01 07:21:24;;;;;;;;;;;;;;;18.07;39.11;93828.72;5051969;28;19933;-70
2023/04/01 07:23:56;;;;;;;;;;;;;;;18.25;38.64;93810.00;5045660;28;19994;-67
2023/04/01 07:26:32;;;;;;;;;;;;;;;18.07;38.65;93846.50;5047201;28;20287;-69
2023/04/01 07:29:10;;;;;;;;;;;;;;;17.82;38.44;93852.81;5059574;28;20380;-67
2023/04/01 07:31:54;;;;;;;;;;;;;;;17.97;38.87;93831.03;5037178;28;20046;-69
2023/04/01 07:34:30;;;;;;;;;;;;;;;18.33;39.52;93825.03;5050579;28;19939;-70
2023/04/01 07:36:59;;;;;;;;;;;;;;;18.61;38.29;93826.00;5067413;28;19944;-66
2023/04/01 07:39:49;;;;;;;;;;;;;;;18.59;38.26;93836.94;5050650;28;19937;-68
2023/04/01 07:42:35;;;;;;;;;;;;;;;18.47;37.69;93828.94;5045802;28;19948;-63
2023/04/01 07:45:02;;;;;;;;;;;;;;;18.26;37.69;93832.75;5048013;28;19946;-64
2023/04/01 07:47:52;;;;;;;;;;;;;;;18.39;37.91;93819.19;5050318;28;20031;-62
2023/04/01 07:50:27;;;;;;;;;;;;;;;18.63;37.34;93816.59;5042516;28;19936;-67
2023/04/01 07:52:54;;;;;;;;;;;;;;;18.75;36.38;93824.56;5050016;28;19936;-67
2023/04/01 07:55:24;;;;;;;;;;;;;;;18.52;36.36;93820.78;5050528;28;19960;-65
2023/04/01 07:57:55;;;;;;;;;;;;;;;18.87;36.05;93816.59;5050191;28;19955;-68
2023/04/01 08:00:29;;;;;;;;;;;;;;;18.54;36.81;93810.59;5050390;28;19945;-65
2023/04/01 08:03:23;;;;;;;;;;;;;;;18.80;36.47;93811.06;5046251;28;19929;-67
2023/04/01 08:05:53;;;;;;;;;;;;;;;18.74;36.28;93801.78;5051572;28;19948;-67
2023/04/01 08:08:23;;;;;;;;;;;;;;;18.73;35.80;93810.06;5050226;28;20006;-68
2023/04/01 08:11:17;;;;;;;;;;;;;;;18.86;35.65;93811.63;5067885;28;20334;-65
2023/04/01 08:14:15;;;;;;;;;;;;;;;19.06;35.30;93800.09;5065337;28;20036;-62
2023/04/01 08:17:29;;;;;;;;;;;;;;;19.19;34.68;93797.09;4965641;28;19957;-68
2023/04/01 08:19:59;;;;;;;;;;;;;;;19.25;35.29;93783.59;5038962;28;19941;-67
2023/04/01 08:22:37;;;;;;;;;;;;;;;19.43;35.32;93776.94;5050088;28;20578;-65
2023/04/01 08:25:16;;;;;;;;;;;;;;;19.39;35.71;93773.38;5050963;28;19944;-68
2023/04/01 08:27:53;;;;;;;;;;;;;;;19.35;35.15;93777.81;5037688;28;19935;-69
2023/04/01 08:30:31;;;;;;;;;;;;;;;19.02;35.02;93760.19;5068285;28;20392;-69
2023/04/01 08:33:08;;;;;;;;;;;;;;;19.20;35.25;93761.47;5049740;28;19995;-69
2023/04/01 08:36:02;;;;;;;;;;;;;;;19.23;35.15;93755.47;5050471;28;19943;-68
2023/04/01 08:38:53;;;;;;;;;;;;;;;19.40;35.35;93737.72;5050104;28;20461;-71
2023/04/01 08:41:28;;;;;;;;;;;;;;;19.56;35.29;93727.94;5044070;28;19942;-68
2023/04/01 08:44:19;;;;;;;;;;;;;;;19.73;34.81;93714.34;5065514;28;20022;-68
2023/04/01 08:46:47;;;;;;;;;;;;;;;19.63;34.27;93709.53;5066294;28;21760;-66
2023/04/01 08:49:20;;;;;;;;;;;;;;;19.80;35.83;93703.88;5049784;28;19943;-71
2023/04/01 08:51:53;;;;;;;;;;;;;;;19.75;36.72;93709.47;5066082;28;20052;-66
2023/04/01 08:54:25;;;;;;;;;;;;;;;19.98;33.88;93705.13;5050331;28;20019;-69
2023/04/01 08:57:12;;;;;;;;;;;;;;;20.26;33.94;93699.75;5049187;28;20406;-68
2023/04/01 09:00:11;;;;;;;;;;;;;;;20.41;33.32;93698.97;5059898;28;20305;-65
2023/04/01 09:03:07;;;;;;;;;;;;;;;20.31;32.52;93697.59;5048745;28;19984;-67
2023/04/01 09:05:44;;;;;;;;;;;;;;;20.26;32.46;93700.53;5053615;28;19986;-68
2023/04/01 09:08:20;;;;;;;;;;;;;;;20.61;32.92;93706.69;5060652;28;19937;-67
2023/04/01 09:10:55;;;;;;;;;;;;;;;20.71;33.95;93700.81;5052247;28;19940;-65
2023/04/01 09:13:51;;;;;;;;;;;;;;;20.76;31.06;93689.91;5017378;28;20386;-66
2023/04/01 09:16:18;;;;;;;;;;;;;;;21.02;31.36;93703.41;5048718;28;19938;-74
2023/04/01 09:18:49;;;;;;;;;;;;;;;20.69;31.83;93705.69;5039176;28;20148;-70
2023/04/01 09:21:42;;;;;;;;;;;;;;;20.83;30.92;93695.38;5035688;28;19951;-68
2023/04/01 09:24:12;;;;;;;;;;;;;;;21.25;31.64;93694.75;5048302;28;20376;-64
2023/04/01 09:26:50;;;;;;;;;;;;;;;21.28;30.88;93691.38;5053250;28;20009;-65
2023/04/01 09:29:18;;;;;;;;;;;;;;;21.25;30.68;93687.53;5053544;28;20370;-69
2023/04/01 09:31:54;;;;;;;;;;;;;;;21.39;30.56;93677.13;5053451;28;19953;-69
2023/04/01 09:34:50;;;;;;;;;;;;;;;21.52;31.34;93673.22;5053697;28;19956;-68
2023/04/01 09:37:36;;;;;;;;;;;;;;;21.52;31.18;93664.44;5053156;28;19937;-71
2023/04/01 09:40:18;;;;;;;;;;;;;;;21.43;31.23;93662.00;5059141;28;19941;-68
2023/04/01 09:42:56;;;;;;;;;;;;;;;21.31;31.92;93664.81;5070579;28;19952;-66
2023/04/01 09:45:27;;;;;;;;;;;;;;;21.58;30.93;93657.69;5050404;28;19946;-66
2023/04/01 09:48:05;;;;;;;;;;;;;;;21.23;31.00;93649.03;5045351;28;20044;-65
2023/04/01 09:50:33;;;;;;;;;;;;;;;21.23;31.40;93635.72;5037626;28;19977;-67
2023/04/01 09:53:15;;;;;;;;;;;;;;;21.45;30.85;93632.31;5046432;28;19948;-67
2023/04/01 09:55:47;;;;;;;;;;;;;;;21.44;30.71;93625.47;5071008;28;19951;-69
2023/04/01 09:58:26;;;;;;;;;;;;;;;21.42;30.63;93622.38;5070714;28;19951;-70
2023/04/01 10:01:31;;;;;;;;;;;;;;;21.51;31.10;93617.59;5070497;28;19946;-67
2023/04/01 10:04:11;;;;;;;;;;;;;;;21.36;31.30;93623.78;5052901;28;20362;-65
2023/04/01 10:06:51;;;;;;;;;;;;;;;21.49;31.57;93611.84;5057837;28;19946;-65
2023/04/01 10:09:37;;;;;;;;;;;;;;;21.51;31.23;93614.94;5052598;28;19939;-70
2023/04/01 10:12:18;;;;;;;;;;;;;;;21.54;31.25;93611.53;5051664;28;19940;-65
2023/04/01 10:15:01;;;;;;;;;;;;;;;21.32;32.97;93629.03;5052570;28;20004;-68
2023/04/01 10:17:27;;;;;;;;;;;;;;;21.51;32.50;93617.59;5070003;28;20044;-67
2023/04/01 10:20:20;;;;;;;;;;;;;;;21.83;31.83;93610.94;5068138;28;19987;-68
2023/04/01 10:22:57;;;;;;;;;;;;;;;21.71;31.51;93600.44;5068407;28;19951;-66
2023/04/01 10:25:27;;;;;;;;;;;;;;;21.98;31.20;93599.38;5052809;28;19947;-65
2023/04/01 10:28:16;;;;;;;;;;;;;;;21.48;31.55;93589.75;5048522;28;19982;-67
2023/04/01 10:31:31;;;;;;;;;;;;;;;21.71;31.34;93587.09;5069543;28;20529;-66
2023/04/01 10:34:27;;;;;;;;;;;;;;;21.62;31.39;93589.97;5052128;28;19946;-65
2023/04/01 10:36:58;;;;;;;;;;;;;;;21.69;31.40;93589.34;4993948;28;20020;-69
2023/04/01 10:39:35;;;;;;;;;;;;;;;21.80;30.88;93585.00;5049020;28;19943;-67
2023/04/01 10:42:46;;;;;;;;;;;;;;;21.89;30.86;93580.19;5045875;28;20034;-71
2023/04/01 10:45:36;;;;;;;;;;;;;;;21.42;30.96;93579.75;5055098;28;19937;-67
2023/04/01 10:48:22;;;;;;;;;;;;;;;21.93;30.57;93576.44;5051497;28;19938;-70
2023/04/01 10:51:09;;;;;;;;;;;;;;;21.80;30.37;93574.31;5047308;28;20046;-66
2023/04/01 10:53:49;;;;;;;;;;;;;;;21.62;31.39;93552.66;5023954;28;19957;-66
2023/04/01 10:56:44;;;;;;;;;;;;;;;21.09;31.35;93565.06;5066171;28;19993;-71
2023/04/01 10:59:48;;;;;;;;;;;;;;;21.48;31.16;93555.09;5057051;28;19949;-67
2023/04/01 11:03:13;;;;;;;;;;;;;;;21.13;31.11;93549.91;5068313;28;20230;-66
2023/04/01 11:06:21;;;;;;;;;;;;;;;21.50;30.47;93544.06;4974841;28;19957;-72
2023/04/01 11:09:06;;;;;;;;;;;;;;;21.39;30.81;93537.78;4981013;28;20404;-68
2023/04/01 11:11:52;;;;;;;;;;;;;;;21.15;30.81;93539.69;5032231;28;19948;-67
2023/04/01 11:14:38;;;;;;;;;;;;;;;20.96;30.38;93541.59;5051431;28;20032;-66
2023/04/01 11:17:35;;;;;;;;;;;;;;;20.64;31.14;93540.97;5069155;28;19956;-68
2023/04/01 11:20:08;;;;;;;;;;;;;;;21.16;30.59;93540.47;5051297;28;20418;-68
2023/04/01 11:22:44;;;;;;;;;;;;;;;21.46;30.37;93538.69;5069094;28;20046;-69
2023/04/01 11:25:20;;;;;;;;;;;;;;;21.56;30.16;93532.00;5068733;28;19939;-67
2023/04/01 11:28:13;;;;;;;;;;;;;;;21.54;30.28;93548.34;5067115;28;19934;-68
2023/04/01 11:30:58;;;;;;;;;;;;;;;21.50;30.02;93554.75;5057463;28;20413;-66
2023/04/01 11:33:25;;;;;;;;;;;;;;;21.10;29.98;93574.59;5068480;28;19954;-66
2023/04/01 11:36:07;;;;;;;;;;;;;;;20.50;31.19;93587.81;5051303;28;19992;-69
2023/04/01 11:38:45;;;;;;;;;;;;;;;20.01;30.57;93625.47;5050933;28;19947;-65
2023/04/01 11:41:41;;;;;;;;;;;;;;;20.04;33.65;93634.63;5012169;28;19961;-67
2023/04/01 11:44:27;;;;;;;;;;;;;;;20.21;33.35;93644.94;5069022;28;19955;-68
2023/04/01 11:47:30;;;;;;;;;;;;;;;19.84;32.94;93678.97;5034222;28;19955;-69
2023/04/01 11:50:12;;;;;;;;;;;;;;;19.34;35.79;93702.69;5047162;28;20424;-68
2023/04/01 11:53:01;;;;;;;;;;;;;;;18.95;38.02;93748.56;5049716;28;19931;-67
2023/04/01 11:55:37;;;;;;;;;;;;;;;17.42;44.17;93799.53;5068541;28;19950;-67
2023/04/01 11:58:06;;;;;;;;;;;;;;;17.10;47.00;93811.59;5068187;28;20495;-69
2023/04/01 12:00:39;;;;;;;;;;;;;;;16.24;51.00;93831.56;5068974;28;19981;-69
2023/04/01 12:03:36;;;;;;;;;;;;;;;16.29;51.84;93830.63;5054613;28;20400;-68
2023/04/01 12:06:21;;;;;;;;;;;;;;;16.32;52.06;93841.34;4994121;28;19926;-72
2023/04/01 12:08:48;;;;;;;;;;;;;;;16.23;52.06;93827.38;5064027;28;19943;-68
2023/04/01 12:11:28;;;;;;;;;;;;;;;16.62;50.99;93813.13;5067975;28;19929;-68
2023/04/01 12:14:13;;;;;;;;;;;;;;;16.67;52.09;93797.06;5068215;28;20039;-66
2023/04/01 12:16:46;;;;;;;;;;;;;;;16.75;51.74;93812.88;5067690;28;19999;-73
2023/04/01 12:19:39;;;;;;;;;;;;;;;17.28;50.82;93806.19;5068336;28;19946;-70
2023/04/01 12:22:23;;;;;;;;;;;;;;;17.61;51.07;93799.09;5067811;28;20793;-68
2023/04/01 12:24:59;;;;;;;;;;;;;;;17.71;51.40;93806.63;5067149;28;19931;-67
2023/04/01 12:27:37;;;;;;;;;;;;;;;17.95;51.20;93804.06;5067127;28;20000;-71
2023/04/01 12:30:23;;;;;;;;;;;;;;;18.28;50.57;93809.34;5068205;28;20339;-68
2023/04/01 12:32:52;;;;;;;;;;;;;;;18.41;49.71;93806.38;5067401;28;20001;-68
2023/04/01 12:35:20;;;;;;;;;;;;;;;18.25;50.46;93813.41;5068456;28;19939;-72
2023/04/01 12:38:05;;;;;;;;;;;;;;;18.08;51.07;93810.97;5065069;28;19950;-65
2023/04/01 12:40:51;;;;;;;;;;;;;;;17.46;51.73;93823.50;5067752;28;19954;-68
2023/04/01 12:43:37;;;;;;;;;;;;;;;17.41;51.61;93829.75;5056680;28;19938;-67
2023/04/01 12:46:04;;;;;;;;;;;;;;;16.60;53.14;93834.59;5067491;28;19946;-68
2023/04/01 12:48:31;;;;;;;;;;;;;;;16.90;52.11;93833.50;5068214;28;19946;-70
2023/04/01 12:51:26;;;;;;;;;;;;;;;16.86;52.19;93821.25;5067301;28;19972;-69
2023/04/01 12:54:13;;;;;;;;;;;;;;;17.34;51.41;93823.41;5068362;28;19941;-69
2023/04/01 12:56:48;;;;;;;;;;;;;;;17.22;51.65;93824.88;5067187;28;19947;-67
2023/04/01 12:59:26;;;;;;;;;;;;;;;17.23;51.15;93818.50;5056068;28;19971;-72
2023/04/01 13:01:56;;;;;;;;;;;;;;;17.27;51.43;93809.91;5053175;28;20014;-67
2023/04/01 13:04:23;;;;;;;;;;;;;;;17.28;51.31;93798.25;5071384;28;19939;-64
2023/04/01 13:06:56;;;;;;;;;;;;;;;17.32;51.35;93785.91;5071950;28;19986;-65
2023/04/01 13:09:38;;;;;;;;;;;;;;;16.99;51.89;93769.94;5072056;28;19940;-65
2023/04/01 13:12:23;;;;;;;;;;;;;;;17.02;52.01;93764.75;5069254;28;19997;-65
2023/04/01 13:14:59;;;;;;;;;;;;;;;16.96;51.25;93744.91;5058873;28;20089;-65
2023/04/01 13:17:26;;;;;;;;;;;;;;;17.20;51.22;93733.66;5056520;28;19950;-65
2023/04/01 13:20:02;;;;;;;;;;;;;;;17.52;51.29;93725.00;5054102;28;19941;-65
2023/04/01 13:22:35;;;;;;;;;;;;;;;17.93;50.64;93718.81;5065206;28;19970;-64
2023/04/01 13:25:04;;;;;;;;;;;;;;;17.92;50.72;93733.16;5070964;28;19971;-70
2023/04/01 13:27:36;;;;;;;;;;;;;;;18.24;50.79;93729.69;5068697;28;19944;-62
2023/04/01 13:30:22;;;;;;;;;;;;;;;18.40;50.73;93721.81;5070033;28;19939;-66